Suhinici, Russia
Current Conditions -  °F | °C
As of 5:00 PM on Friday 31 Oct 2014 (Local Time) from UUBP Reporting Station
Smoke Smoke  
Wind Chill: 36°   Ceiling: 2500
Heat Index: 39°   Visibility: 2.5mi
Dew Point: 30°   Wind: 4mph
Humidity: 70%   Direction: 320°NW
Pressure: 30.12"   Gusts: NA
Location:  54.1°N, 35.35°E
Report Text: UUBP 311400Z 32002MPS 4000 FU OVC025 04/M01 Q1020 NOSIG RMKQFE747 34CLRD70
Loading
Personal Weather Stations






























Interactive Weather Map
Tropical Storm Tracking
New forecast layout! Learn more

10-Day Weather Forecast

Advertisements
Track Severe Weather on mobile